sensor_id;sensor_type;location;lat;lon;timestamp;pressure;altitude;pressure_sealevel;temperature;humidity
46682;BME280;34101;53.430;-2.224;2023-02-14T00:00:28;58132.98;;;-148.94;81.73
46682;BME280;34101;53.430;-2.224;2023-02-14T00:02:55;58178.13;;;-148.94;82.60
46682;BME280;34101;53.430;-2.224;2023-02-14T00:05:23;58004.48;;;-148.94;82.49
46682;BME280;34101;53.430;-2.224;2023-02-14T00:07:50;58015.38;;;-148.94;82.88
46682;BME280;34101;53.430;-2.224;2023-02-14T00:10:18;58064.11;;;-148.94;81.50
46682;BME280;34101;53.430;-2.224;2023-02-14T00:12:45;58049.11;;;-148.94;84.32
46682;BME280;34101;53.430;-2.224;2023-02-14T00:15:13;57892.39;;;-148.94;85.20
46682;BME280;34101;53.430;-2.224;2023-02-14T00:17:40;57893.16;;;-148.94;84.74
46682;BME280;34101;53.430;-2.224;2023-02-14T00:20:08;57892.65;;;-148.94;85.64
46682;BME280;34101;53.430;-2.224;2023-02-14T00:22:36;57802.62;;;-148.94;85.74
46682;BME280;34101;53.430;-2.224;2023-02-14T00:25:03;57690.67;;;-148.94;85.30
46682;BME280;34101;53.430;-2.224;2023-02-14T00:27:31;57644.38;;;-148.94;87.06
46682;BME280;34101;53.430;-2.224;2023-02-14T00:29:58;57598.60;;;-148.94;88.94
46682;BME280;34101;53.430;-2.224;2023-02-14T00:32:25;57462.80;;;-148.94;92.04
46682;BME280;34101;53.430;-2.224;2023-02-14T00:34:52;57371.25;;;-148.94;93.17
46682;BME280;34101;53.430;-2.224;2023-02-14T00:37:20;57378.81;;;-148.94;92.11
46682;BME280;34101;53.430;-2.224;2023-02-14T00:39:47;57325.73;;;-148.94;92.15
46682;BME280;34101;53.430;-2.224;2023-02-14T00:42:15;57364.58;;;-148.94;92.41
46682;BME280;34101;53.430;-2.224;2023-02-14T00:44:42;57375.99;;;-148.94;92.21
46682;BME280;34101;53.430;-2.224;2023-02-14T00:47:09;57439.21;;;-148.94;90.79
46682;BME280;34101;53.430;-2.224;2023-02-14T00:49:37;57475.11;;;-148.94;90.35
46682;BME280;34101;53.430;-2.224;2023-02-14T00:52:04;57546.28;;;-148.94;90.39
46682;BME280;34101;53.430;-2.224;2023-02-14T00:54:31;57587.31;;;-148.94;89.76
46682;BME280;34101;53.430;-2.224;2023-02-14T00:56:59;57774.54;;;-148.94;87.87
46682;BME280;34101;53.430;-2.224;2023-02-14T00:59:26;57895.08;;;-148.94;87.50
46682;BME280;34101;53.430;-2.224;2023-02-14T01:01:54;57974.98;;;-148.94;89.64
46682;BME280;34101;53.430;-2.224;2023-02-14T01:04:21;57873.92;;;-148.94;92.24
46682;BME280;34101;53.430;-2.224;2023-02-14T01:06:48;57984.60;;;-148.94;90.60
46682;BME280;34101;53.430;-2.224;2023-02-14T01:09:16;57976.52;;;-148.94;91.62
46682;BME280;34101;53.430;-2.224;2023-02-14T01:11:43;58023.20;;;-148.94;92.23
46682;BME280;34101;53.430;-2.224;2023-02-14T01:14:10;58286.25;;;-148.94;88.51
46682;BME280;34101;53.430;-2.224;2023-02-14T01:16:39;58573.16;;;-148.94;88.05
46682;BME280;34101;53.430;-2.224;2023-02-14T01:19:05;58742.48;;;-148.94;86.93
46682;BME280;34101;53.430;-2.224;2023-02-14T01:21:33;58991.59;;;-148.94;86.08
46682;BME280;34101;53.430;-2.224;2023-02-14T01:24:02;59155.14;;;-148.94;86.83
46682;BME280;34101;53.430;-2.224;2023-02-14T01:26:30;59296.26;;;-148.94;86.40
46682;BME280;34101;53.430;-2.224;2023-02-14T01:28:58;59443.02;;;-148.94;85.49
46682;BME280;34101;53.430;-2.224;2023-02-14T01:31:27;59616.99;;;-148.94;88.09
46682;BME280;34101;53.430;-2.224;2023-02-14T01:33:55;59767.87;;;-148.94;86.57
46682;BME280;34101;53.430;-2.224;2023-02-14T01:36:24;59889.25;;;-148.94;86.57
46682;BME280;34101;53.430;-2.224;2023-02-14T01:38:53;60019.10;;;-148.94;85.85
46682;BME280;34101;53.430;-2.224;2023-02-14T01:41:21;60095.70;;;-148.94;86.47
46682;BME280;34101;53.430;-2.224;2023-02-14T01:43:51;60160.89;;;-148.94;86.72
46682;BME280;34101;53.430;-2.224;2023-02-14T01:46:19;60274.71;;;-148.94;86.39
46682;BME280;34101;53.430;-2.224;2023-02-14T01:48:46;60432.67;;;-148.94;86.93
46682;BME280;34101;53.430;-2.224;2023-02-14T01:51:18;60417.40;;;-148.94;88.06
46682;BME280;34101;53.430;-2.224;2023-02-14T01:53:47;60475.28;;;-148.94;87.44
46682;BME280;34101;53.430;-2.224;2023-02-14T01:56:20;60469.89;;;-148.94;88.77
46682;BME280;34101;53.430;-2.224;2023-02-14T01:58:52;60540.34;;;-148.94;89.24
46682;BME280;34101;53.430;-2.224;2023-02-14T02:01:21;60625.81;;;-148.94;91.88
46682;BME280;34101;53.430;-2.224;2023-02-14T02:03:53;60694.21;;;-148.94;93.14
46682;BME280;34101;53.430;-2.224;2023-02-14T02:06:24;60725.90;;;-148.94;92.82
46682;BME280;34101;53.430;-2.224;2023-02-14T02:09:01;60833.71;;;-148.94;93.12
46682;BME280;34101;53.430;-2.224;2023-02-14T02:11:31;60840.25;;;-148.94;92.49
46682;BME280;34101;53.430;-2.224;2023-02-14T02:13:58;60845.39;;;-148.94;91.78
46682;BME280;34101;53.430;-2.224;2023-02-14T02:16:43;60957.68;;;-148.94;91.47
46682;BME280;34101;53.430;-2.224;2023-02-14T02:19:40;61028.14;;;-148.94;90.42
46682;BME280;34101;53.430;-2.224;2023-02-14T02:22:46;61130.44;;;-148.94;90.38
46682;BME280;34101;53.430;-2.224;2023-02-14T02:25:38;61199.74;;;-148.94;90.10
46682;BME280;34101;53.430;-2.224;2023-02-14T02:28:22;61438.10;;;-148.94;90.03
46682;BME280;34101;53.430;-2.224;2023-02-14T02:31:31;61512.16;;;-148.94;89.55
46682;BME280;34101;53.430;-2.224;2023-02-14T02:34:26;61566.84;;;-148.94;89.96
46682;BME280;34101;53.430;-2.224;2023-02-14T02:37:23;61516.91;;;-148.94;89.92
46682;BME280;34101;53.430;-2.224;2023-02-14T02:40:06;61574.29;;;-148.94;89.54
46682;BME280;34101;53.430;-2.224;2023-02-14T02:42:47;61639.11;;;-148.94;89.41
46682;BME280;34101;53.430;-2.224;2023-02-14T02:45:30;61685.96;;;-148.94;88.67
46682;BME280;34101;53.430;-2.224;2023-02-14T02:48:05;61954.77;;;-148.94;88.39
46682;BME280;34101;53.430;-2.224;2023-02-14T02:50:40;62059.01;;;-148.94;89.24
46682;BME280;34101;53.430;-2.224;2023-02-14T02:53:15;62097.91;;;-148.94;88.66
46682;BME280;34101;53.430;-2.224;2023-02-14T02:55:51;62090.33;;;-148.94;90.96
46682;BME280;34101;53.430;-2.224;2023-02-14T02:58:21;62146.82;;;-148.94;90.29
46682;BME280;34101;53.430;-2.224;2023-02-14T03:00:52;62211.01;;;-148.94;89.90
46682;BME280;34101;53.430;-2.224;2023-02-14T03:03:23;62272.38;;;-148.94;89.82
46682;BME280;34101;53.430;-2.224;2023-02-14T03:05:52;62302.42;;;-148.94;89.75
46682;BME280;34101;53.430;-2.224;2023-02-14T03:08:19;62369.95;;;-148.94;89.75
46682;BME280;34101;53.430;-2.224;2023-02-14T03:10:46;62374.83;;;-148.94;90.08
46682;BME280;34101;53.430;-2.224;2023-02-14T03:13:29;62428.11;;;-148.94;90.25
46682;BME280;34101;53.430;-2.224;2023-02-14T03:16:19;62524.02;;;-148.94;90.01
46682;BME280;34101;53.430;-2.224;2023-02-14T03:19:02;62577.56;;;-148.94;90.35
46682;BME280;34101;53.430;-2.224;2023-02-14T03:21:39;62580.39;;;-148.94;90.33
46682;BME280;34101;53.430;-2.224;2023-02-14T03:24:15;62588.86;;;-148.94;91.50
46682;BME280;34101;53.430;-2.224;2023-02-14T03:26:48;62645.10;;;-148.94;91.06
46682;BME280;34101;53.430;-2.224;2023-02-14T03:29:23;62765.66;;;-148.94;90.98
46682;BME280;34101;53.430;-2.224;2023-02-14T03:31:58;62836.03;;;-148.94;92.08
46682;BME280;34101;53.430;-2.224;2023-02-14T03:34:33;62827.30;;;-148.94;93.40
46682;BME280;34101;53.430;-2.224;2023-02-14T03:37:05;62941.96;;;-148.94;91.67
46682;BME280;34101;53.430;-2.224;2023-02-14T03:39:39;63248.99;;;-148.94;94.51
46682;BME280;34101;53.430;-2.224;2023-02-14T03:42:13;63237.95;;;-148.94;100.00
46682;BME280;34101;53.430;-2.224;2023-02-14T03:44:43;63069.85;;;-148.94;100.00
46682;BME280;34101;53.430;-2.224;2023-02-14T03:47:16;63096.56;;;-148.94;100.00
46682;BME280;34101;53.430;-2.224;2023-02-14T03:49:49;63017.72;;;-148.94;100.00
46682;BME280;34101;53.430;-2.224;2023-02-14T03:52:17;62935.15;;;-148.94;100.00
46682;BME280;34101;53.430;-2.224;2023-02-14T03:54:48;62895.48;;;-148.94;100.00
46682;BME280;34101;53.430;-2.224;2023-02-14T03:57:21;62882.12;;;-148.94;100.00
46682;BME280;34101;53.430;-2.224;2023-02-14T03:59:49;62877.37;;;-148.94;100.00
46682;BME280;34101;53.430;-2.224;2023-02-14T04:02:22;62827.55;;;-148.94;100.00
46682;BME280;34101;53.430;-2.224;2023-02-14T04:04:52;62812.91;;;-148.94;100.00
46682;BME280;34101;53.430;-2.224;2023-02-14T04:07:21;62814.33;;;-148.94;100.00
46682;BME280;34101;53.430;-2.224;2023-02-14T04:09:49;62797.38;;;-148.94;100.00
46682;BME280;34101;53.430;-2.224;2023-02-14T04:12:18;62821.65;;;-148.94;100.00
46682;BME280;34101;53.430;-2.224;2023-02-14T04:14:46;62926.17;;;-148.94;100.00
46682;BME280;34101;53.430;-2.224;2023-02-14T04:17:13;62919.87;;;-148.94;100.00
46682;BME280;34101;53.430;-2.224;2023-02-14T04:19:41;63034.29;;;-148.94;100.00
46682;BME280;34101;53.430;-2.224;2023-02-14T04:22:09;63083.59;;;-148.94;100.00
46682;BME280;34101;53.430;-2.224;2023-02-14T04:24:36;63125.97;;;-148.94;100.00
46682;BME280;34101;53.430;-2.224;2023-02-14T04:27:04;63135.34;;;-148.94;100.00
46682;BME280;34101;53.430;-2.224;2023-02-14T04:29:32;63183.76;;;-148.94;100.00
46682;BME280;34101;53.430;-2.224;2023-02-14T04:31:59;63209.31;;;-148.94;100.00
46682;BME280;34101;53.430;-2.224;2023-02-14T04:34:26;63323.99;;;-148.94;100.00
46682;BME280;34101;53.430;-2.224;2023-02-14T04:36:53;63581.99;;;-148.94;100.00
46682;BME280;34101;53.430;-2.224;2023-02-14T04:39:21;63587.38;;;-148.94;100.00
46682;BME280;34101;53.430;-2.224;2023-02-14T04:41:48;63645.69;;;-148.94;100.00
46682;BME280;34101;53.430;-2.224;2023-02-14T04:44:16;63624.50;;;-148.94;100.00
46682;BME280;34101;53.430;-2.224;2023-02-14T04:46:43;63618.85;;;-148.94;100.00
46682;BME280;34101;53.430;-2.224;2023-02-14T04:49:11;63728.78;;;-148.94;100.00
46682;BME280;34101;53.430;-2.224;2023-02-14T04:51:39;63758.45;;;-148.94;100.00
46682;BME280;34101;53.430;-2.224;2023-02-14T04:54:06;63832.30;;;-148.94;100.00
46682;BME280;34101;53.430;-2.224;2023-02-14T04:56:33;63883.80;;;-148.94;100.00
46682;BME280;34101;53.430;-2.224;2023-02-14T04:59:01;63927.98;;;-148.94;100.00
46682;BME280;34101;53.430;-2.224;2023-02-14T05:01:28;64091.23;;;-148.94;100.00
46682;BME280;34101;53.430;-2.224;2023-02-14T05:03:56;64199.25;;;-148.94;100.00
46682;BME280;34101;53.430;-2.224;2023-02-14T05:06:23;64452.69;;;-148.94;100.00
46682;BME280;34101;53.430;-2.224;2023-02-14T05:08:50;64660.53;;;-148.94;100.00
46682;BME280;34101;53.430;-2.224;2023-02-14T05:11:17;64673.89;;;-148.94;100.00
46682;BME280;34101;53.430;-2.224;2023-02-14T05:13:44;64651.41;;;-148.94;100.00
46682;BME280;34101;53.430;-2.224;2023-02-14T05:16:12;64627.77;;;-148.94;100.00
46682;BME280;34101;53.430;-2.224;2023-02-14T05:18:40;64699.46;;;-148.94;100.00
46682;BME280;34101;53.430;-2.224;2023-02-14T05:21:07;64755.85;;;-148.94;100.00
46682;BME280;34101;53.430;-2.224;2023-02-14T05:23:35;64897.55;;;-148.94;100.00
46682;BME280;34101;53.430;-2.224;2023-02-14T05:26:02;65026.92;;;-148.94;100.00
46682;BME280;34101;53.430;-2.224;2023-02-14T05:28:29;65236.72;;;-148.94;100.00
46682;BME280;34101;53.430;-2.224;2023-02-14T05:30:57;65712.13;;;-148.94;100.00
46682;BME280;34101;53.430;-2.224;2023-02-14T05:33:25;66293.35;;;-148.94;100.00
46682;BME280;34101;53.430;-2.224;2023-02-14T05:35:53;66616.45;;;-148.94;100.00
46682;BME280;34101;53.430;-2.224;2023-02-14T05:38:20;66788.16;;;-148.94;100.00
46682;BME280;34101;53.430;-2.224;2023-02-14T05:40:47;66693.82;;;-148.94;100.00
46682;BME280;34101;53.430;-2.224;2023-02-14T05:43:15;66788.68;;;-148.94;100.00
46682;BME280;34101;53.430;-2.224;2023-02-14T05:45:42;66812.59;;;-148.94;100.00
46682;BME280;34101;53.430;-2.224;2023-02-14T05:48:09;66865.03;;;-148.94;100.00
46682;BME280;34101;53.430;-2.224;2023-02-14T05:50:37;67056.16;;;-148.94;100.00
46682;BME280;34101;53.430;-2.224;2023-02-14T05:53:04;67032.64;;;-148.94;100.00
46682;BME280;34101;53.430;-2.224;2023-02-14T05:55:31;66889.06;;;-148.94;100.00
46682;BME280;34101;53.430;-2.224;2023-02-14T05:57:58;67314.27;;;-148.94;100.00
46682;BME280;34101;53.430;-2.224;2023-02-14T06:00:26;67549.65;;;-148.94;100.00
46682;BME280;34101;53.430;-2.224;2023-02-14T06:02:53;67500.16;;;-148.94;100.00
46682;BME280;34101;53.430;-2.224;2023-02-14T06:05:20;67799.57;;;-148.94;100.00
46682;BME280;34101;53.430;-2.224;2023-02-14T06:07:48;67866.81;;;-148.94;100.00
46682;BME280;34101;53.430;-2.224;2023-02-14T06:10:16;67716.39;;;-148.94;100.00
46682;BME280;34101;53.430;-2.224;2023-02-14T06:12:44;67961.95;;;-148.94;100.00
46682;BME280;34101;53.430;-2.224;2023-02-14T06:15:11;67965.03;;;-148.94;100.00
46682;BME280;34101;53.430;-2.224;2023-02-14T06:17:39;67657.25;;;-148.94;100.00
46682;BME280;34101;53.430;-2.224;2023-02-14T06:20:08;67854.59;;;-148.94;100.00
46682;BME280;34101;53.430;-2.224;2023-02-14T06:22:36;68104.40;;;-148.94;100.00
46682;BME280;34101;53.430;-2.224;2023-02-14T06:25:04;68072.90;;;-148.94;100.00
46682;BME280;34101;53.430;-2.224;2023-02-14T06:27:33;68246.86;;;-148.94;100.00
46682;BME280;34101;53.430;-2.224;2023-02-14T06:30:00;67895.09;;;-148.94;100.00
46682;BME280;34101;53.430;-2.224;2023-02-14T06:32:27;68266.53;;;-148.94;99.81
46682;BME280;34101;53.430;-2.224;2023-02-14T06:34:55;68346.12;;;-148.94;100.00
46682;BME280;34101;53.430;-2.224;2023-02-14T06:37:22;68422.76;;;-148.94;100.00
46682;BME280;34101;53.430;-2.224;2023-02-14T06:39:49;68202.76;;;-148.94;100.00
46682;BME280;34101;53.430;-2.224;2023-02-14T06:42:17;68099.00;;;-148.94;100.00
46682;BME280;34101;53.430;-2.224;2023-02-14T06:44:44;68126.26;;;-148.94;100.00
46682;BME280;34101;53.430;-2.224;2023-02-14T06:47:12;68424.17;;;-148.94;100.00
46682;BME280;34101;53.430;-2.224;2023-02-14T06:49:39;68363.74;;;-148.94;100.00
46682;BME280;34101;53.430;-2.224;2023-02-14T06:52:06;68192.99;;;-148.94;100.00
46682;BME280;34101;53.430;-2.224;2023-02-14T06:54:34;68157.37;;;-148.94;100.00
46682;BME280;34101;53.430;-2.224;2023-02-14T06:57:01;67934.69;;;-148.94;100.00
46682;BME280;34101;53.430;-2.224;2023-02-14T06:59:29;67641.31;;;-148.94;100.00
46682;BME280;34101;53.430;-2.224;2023-02-14T07:01:56;67706.10;;;-148.94;100.00
46682;BME280;34101;53.430;-2.224;2023-02-14T07:04:24;67640.67;;;-148.94;100.00
46682;BME280;34101;53.430;-2.224;2023-02-14T07:06:52;67566.75;;;-148.94;100.00
46682;BME280;34101;53.430;-2.224;2023-02-14T07:09:19;67501.96;;;-148.94;100.00
46682;BME280;34101;53.430;-2.224;2023-02-14T07:11:46;67253.21;;;-148.94;100.00
46682;BME280;34101;53.430;-2.224;2023-02-14T07:14:13;67595.16;;;-148.94;100.00
46682;BME280;34101;53.430;-2.224;2023-02-14T07:16:41;67505.30;;;-148.94;100.00
46682;BME280;34101;53.430;-2.224;2023-02-14T07:19:08;67301.55;;;-148.94;100.00
46682;BME280;34101;53.430;-2.224;2023-02-14T07:21:36;67106.29;;;-148.94;99.57
46682;BME280;34101;53.430;-2.224;2023-02-14T07:24:03;67005.26;;;-148.94;99.91
46682;BME280;34101;53.430;-2.224;2023-02-14T07:26:31;66931.48;;;-148.94;99.54
46682;BME280;34101;53.430;-2.224;2023-02-14T07:28:59;66752.30;;;-148.94;99.18
46682;BME280;34101;53.430;-2.224;2023-02-14T07:31:26;66665.42;;;-148.94;98.23
46682;BME280;34101;53.430;-2.224;2023-02-14T07:33:53;66637.27;;;-148.94;98.68
46682;BME280;34101;53.430;-2.224;2023-02-14T07:36:21;66585.48;;;-148.94;99.04
46682;BME280;34101;53.430;-2.224;2023-02-14T07:38:48;66687.66;;;-148.94;98.38
46682;BME280;34101;53.430;-2.224;2023-02-14T07:41:16;66734.95;;;-148.94;98.28
46682;BME280;34101;53.430;-2.224;2023-02-14T07:43:43;66317.00;;;-148.94;97.27
46682;BME280;34101;53.430;-2.224;2023-02-14T07:46:11;66583.81;;;-148.94;96.73
46682;BME280;34101;53.430;-2.224;2023-02-14T07:48:38;66802.17;;;-148.94;97.09
46682;BME280;34101;53.430;-2.224;2023-02-14T07:51:06;66259.68;;;-148.94;97.78
46682;BME280;34101;53.430;-2.224;2023-02-14T07:53:33;65920.94;;;-148.94;98.14
46682;BME280;34101;53.430;-2.224;2023-02-14T07:56:00;65680.52;;;-148.94;97.16
46682;BME280;34101;53.430;-2.224;2023-02-14T07:58:27;65461.83;;;-148.94;96.97
46682;BME280;34101;53.430;-2.224;2023-02-14T08:00:54;65063.02;;;-148.94;96.55
46682;BME280;34101;53.430;-2.224;2023-02-14T08:03:21;63669.45;;;-148.94;96.27
46682;BME280;34101;53.430;-2.224;2023-02-14T08:05:49;61925.11;;;-148.94;93.98
46682;BME280;34101;53.430;-2.224;2023-02-14T08:08:17;60593.72;;;-148.94;88.57
46682;BME280;34101;53.430;-2.224;2023-02-14T08:10:44;59706.93;;;-148.94;83.30
46682;BME280;34101;53.430;-2.224;2023-02-14T08:13:11;58162.22;;;-148.94;79.25
46682;BME280;34101;53.430;-2.224;2023-02-14T08:15:39;56855.55;;;-148.94;73.26
46682;BME280;34101;53.430;-2.224;2023-02-14T08:18:06;55681.84;;;-148.94;68.70
46682;BME280;34101;53.430;-2.224;2023-02-14T08:20:33;54504.25;;;-148.94;65.51
46682;BME280;34101;53.430;-2.224;2023-02-14T08:23:00;53069.29;;;-148.94;61.74
46682;BME280;34101;53.430;-2.224;2023-02-14T08:25:27;51750.21;;;-148.94;59.46
46682;BME280;34101;53.430;-2.224;2023-02-14T08:27:54;50737.13;;;-148.94;56.69
46682;BME280;34101;53.430;-2.224;2023-02-14T08:30:22;49368.02;;;-148.94;56.66
46682;BME280;34101;53.430;-2.224;2023-02-14T08:32:50;47476.48;;;-148.94;54.52
46682;BME280;34101;53.430;-2.224;2023-02-14T08:35:19;46070.92;;;-148.94;53.17
46682;BME280;34101;53.430;-2.224;2023-02-14T08:37:46;46068.49;;;-148.94;52.12
46682;BME280;34101;53.430;-2.224;2023-02-14T08:40:13;45229.94;;;-148.94;52.16
46682;BME280;34101;53.430;-2.224;2023-02-14T08:42:41;47986.86;;;-148.94;52.43
46682;BME280;34101;53.430;-2.224;2023-02-14T08:45:09;45326.20;;;-148.94;52.38
46682;BME280;34101;53.430;-2.224;2023-02-14T08:47:36;44227.47;;;-148.94;52.06
46682;BME280;34101;53.430;-2.224;2023-02-14T08:50:05;42588.13;;;-148.94;50.70
46682;BME280;34101;53.430;-2.224;2023-02-14T08:52:33;41541.00;;;-148.94;49.82
46682;BME280;34101;53.430;-2.224;2023-02-14T08:55:00;40488.78;;;-148.94;49.04
46682;BME280;34101;53.430;-2.224;2023-02-14T08:57:27;40232.15;;;-148.94;48.44
46682;BME280;34101;53.430;-2.224;2023-02-14T08:59:54;38759.10;;;-148.94;47.72
46682;BME280;34101;53.430;-2.224;2023-02-14T09:02:22;37244.64;;;-148.94;46.79
46682;BME280;34101;53.430;-2.224;2023-02-14T09:04:49;36148.42;;;-148.94;45.94
46682;BME280;34101;53.430;-2.224;2023-02-14T09:07:17;34945.40;;;-148.94;45.19
46682;BME280;34101;53.430;-2.224;2023-02-14T09:09:44;34029.81;;;-148.94;43.93
46682;BME280;34101;53.430;-2.224;2023-02-14T09:12:11;33216.77;;;-148.94;43.77
46682;BME280;34101;53.430;-2.224;2023-02-14T09:14:40;32657.71;;;-148.94;43.96
46682;BME280;34101;53.430;-2.224;2023-02-14T09:17:08;31898.97;;;-148.94;43.71
46682;BME280;34101;53.430;-2.224;2023-02-14T09:19:36;31219.35;;;-148.94;43.09
46682;BME280;34101;53.430;-2.224;2023-02-14T09:22:09;30387.28;;;-148.94;42.54
46682;BME280;34101;53.430;-2.224;2023-02-14T09:24:38;29870.14;;;-148.94;41.86
46682;BME280;34101;53.430;-2.224;2023-02-14T09:27:06;29475.29;;;-148.94;42.21
46682;BME280;34101;53.430;-2.224;2023-02-14T09:29:34;28912.96;;;-148.94;41.41
46682;BME280;34101;53.430;-2.224;2023-02-14T09:32:02;28434.58;;;-148.94;40.90
46682;BME280;34101;53.430;-2.224;2023-02-14T09:34:31;27826.96;;;-148.94;40.55
46682;BME280;34101;53.430;-2.224;2023-02-14T09:36:58;27268.80;;;-148.94;40.50
46682;BME280;34101;53.430;-2.224;2023-02-14T09:39:26;26617.84;;;-148.94;40.56
46682;BME280;34101;53.430;-2.224;2023-02-14T09:42:21;26015.08;;;-148.94;40.06
46682;BME280;34101;53.430;-2.224;2023-02-14T09:44:52;28505.73;;;-148.94;40.57
46682;BME280;34101;53.430;-2.224;2023-02-14T09:47:26;31551.57;;;-148.94;42.53
46682;BME280;34101;53.430;-2.224;2023-02-14T09:49:57;33536.66;;;-148.94;43.75
46682;BME280;34101;53.430;-2.224;2023-02-14T09:52:27;35413.35;;;-148.94;44.80
46682;BME280;34101;53.430;-2.224;2023-02-14T09:54:58;36803.13;;;-148.94;45.70
46682;BME280;34101;53.430;-2.224;2023-02-14T09:57:35;37542.28;;;-148.94;46.55
46682;BME280;34101;53.430;-2.224;2023-02-14T10:00:16;38310.53;;;-148.94;47.36
46682;BME280;34101;53.430;-2.224;2023-02-14T10:02:55;39826.56;;;-148.94;49.13
46682;BME280;34101;53.430;-2.224;2023-02-14T10:05:26;40988.80;;;-148.94;49.97
46682;BME280;34101;53.430;-2.224;2023-02-14T10:07:59;41559.13;;;-148.94;50.48
46682;BME280;34101;53.430;-2.224;2023-02-14T10:10:36;42666.70;;;-148.94;51.52
46682;BME280;34101;53.430;-2.224;2023-02-14T10:13:18;43310.99;;;-148.94;52.47
46682;BME280;34101;53.430;-2.224;2023-02-14T10:15:54;44322.05;;;-148.94;52.99
46682;BME280;34101;53.430;-2.224;2023-02-14T10:18:26;44693.72;;;-148.94;54.11
46682;BME280;34101;53.430;-2.224;2023-02-14T10:20:58;45320.32;;;-148.94;54.74
46682;BME280;34101;53.430;-2.224;2023-02-14T10:23:31;45140.84;;;-148.94;54.67
46682;BME280;34101;53.430;-2.224;2023-02-14T10:26:03;44974.54;;;-148.94;54.66
46682;BME280;34101;53.430;-2.224;2023-02-14T10:28:32;44834.45;;;-148.94;55.10
46682;BME280;34101;53.430;-2.224;2023-02-14T10:31:16;44421.73;;;-148.94;54.79
46682;BME280;34101;53.430;-2.224;2023-02-14T10:33:53;43809.08;;;-148.94;54.65
46682;BME280;34101;53.430;-2.224;2023-02-14T10:36:31;43090.34;;;-148.94;53.89
46682;BME280;34101;53.430;-2.224;2023-02-14T10:39:13;42864.46;;;-148.94;53.29
46682;BME280;34101;53.430;-2.224;2023-02-14T10:41:49;42649.71;;;-148.94;53.48
46682;BME280;34101;53.430;-2.224;2023-02-14T10:44:30;42363.30;;;-148.94;53.37
46682;BME280;34101;53.430;-2.224;2023-02-14T10:47:21;42751.52;;;-148.94;53.95
46682;BME280;34101;53.430;-2.224;2023-02-14T10:49:55;43474.67;;;-148.94;54.82
46682;BME280;34101;53.430;-2.224;2023-02-14T10:52:31;43632.35;;;-148.94;55.44
46682;BME280;34101;53.430;-2.224;2023-02-14T10:55:09;43492.05;;;-148.94;54.70
46682;BME280;34101;53.430;-2.224;2023-02-14T10:57:42;44249.71;;;-148.94;55.06
46682;BME280;34101;53.430;-2.224;2023-02-14T11:00:18;44824.86;;;-148.94;56.29
46682;BME280;34101;53.430;-2.224;2023-02-14T11:02:51;44337.13;;;-148.94;56.19
46682;BME280;34101;53.430;-2.224;2023-02-14T11:05:25;43636.57;;;-148.94;55.22
46682;BME280;34101;53.430;-2.224;2023-02-14T11:07:53;43456.14;;;-148.94;53.67
46682;BME280;34101;53.430;-2.224;2023-02-14T11:10:26;43453.72;;;-148.94;54.63
46682;BME280;34101;53.430;-2.224;2023-02-14T11:12:56;42978.04;;;-148.94;53.60
46682;BME280;34101;53.430;-2.224;2023-02-14T11:15:25;42466.01;;;-148.94;53.55
46682;BME280;34101;53.430;-2.224;2023-02-14T11:18:14;41823.76;;;-148.94;53.39
46682;BME280;34101;53.430;-2.224;2023-02-14T11:20:43;41786.21;;;-148.94;53.69
46682;BME280;34101;53.430;-2.224;2023-02-14T11:23:24;41588.38;;;-148.94;53.96
46682;BME280;34101;53.430;-2.224;2023-02-14T11:25:53;41591.19;;;-148.94;54.13
46682;BME280;34101;53.430;-2.224;2023-02-14T11:28:22;41480.59;;;-148.94;53.62
46682;BME280;34101;53.430;-2.224;2023-02-14T11:30:50;42262.26;;;-148.94;53.78
46682;BME280;34101;53.430;-2.224;2023-02-14T11:33:28;42435.22;;;-148.94;53.98
46682;BME280;34101;53.430;-2.224;2023-02-14T11:35:57;42893.97;;;-148.94;53.68
46682;BME280;34101;53.430;-2.224;2023-02-14T11:38:27;43028.37;;;-148.94;54.37
46682;BME280;34101;53.430;-2.224;2023-02-14T11:40:56;43081.40;;;-148.94;54.65
46682;BME280;34101;53.430;-2.224;2023-02-14T11:43:33;42827.79;;;-148.94;54.25
46682;BME280;34101;53.430;-2.224;2023-02-14T11:46:09;42769.67;;;-148.94;53.90
46682;BME280;34101;53.430;-2.224;2023-02-14T11:48:39;42258.81;;;-148.94;53.68
46682;BME280;34101;53.430;-2.224;2023-02-14T11:51:26;41679.44;;;-148.94;53.72
46682;BME280;34101;53.430;-2.224;2023-02-14T11:53:56;41316.74;;;-148.94;53.01
46682;BME280;34101;53.430;-2.224;2023-02-14T11:56:24;40948.71;;;-148.94;52.79
46682;BME280;34101;53.430;-2.224;2023-02-14T11:58:54;40845.66;;;-148.94;53.32
46682;BME280;34101;53.430;-2.224;2023-02-14T12:01:25;41151.36;;;-148.94;53.33
46682;BME280;34101;53.430;-2.224;2023-02-14T12:03:56;41305.88;;;-148.94;53.02
46682;BME280;34101;53.430;-2.224;2023-02-14T12:06:27;41356.97;;;-148.94;53.13
46682;BME280;34101;53.430;-2.224;2023-02-14T12:09:10;40886.52;;;-148.94;53.05
46682;BME280;34101;53.430;-2.224;2023-02-14T12:11:38;40411.02;;;-148.94;52.79
46682;BME280;34101;53.430;-2.224;2023-02-14T12:14:20;39680.52;;;-148.94;52.12
46682;BME280;34101;53.430;-2.224;2023-02-14T12:16:53;38794.84;;;-148.94;51.16
46682;BME280;34101;53.430;-2.224;2023-02-14T12:19:31;36960.92;;;-148.94;51.37
46682;BME280;34101;53.430;-2.224;2023-02-14T12:22:02;35200.79;;;-148.94;49.74
46682;BME280;34101;53.430;-2.224;2023-02-14T12:24:32;32535.26;;;-148.94;48.29
46682;BME280;34101;53.430;-2.224;2023-02-14T12:27:09;30980.65;;;-148.94;46.83
46682;BME280;34101;53.430;-2.224;2023-02-14T12:29:47;31190.94;;;-148.94;47.07
46682;BME280;34101;53.430;-2.224;2023-02-14T12:32:22;31401.50;;;-148.94;46.82
46682;BME280;34101;53.430;-2.224;2023-02-14T12:34:52;31822.53;;;-148.94;46.77
46682;BME280;34101;53.430;-2.224;2023-02-14T12:37:30;31919.86;;;-148.94;47.24
46682;BME280;34101;53.430;-2.224;2023-02-14T12:40:14;31833.62;;;-148.94;47.00
46682;BME280;34101;53.430;-2.224;2023-02-14T12:42:53;32129.95;;;-148.94;46.44
46682;BME280;34101;53.430;-2.224;2023-02-14T12:45:29;32200.54;;;-148.94;46.68